createdAt,value
2018-12-06T00:00:18.652Z,7.6
2018-12-06T00:01:18.713Z,7.1
2018-12-06T00:02:18.620Z,6.7
2018-12-06T00:03:18.636Z,6.6
2018-12-06T00:04:18.667Z,6.5
2018-12-06T00:05:18.723Z,6.6
2018-12-06T00:06:18.639Z,6.5
2018-12-06T00:07:18.648Z,6.3
2018-12-06T00:08:18.625Z,6.1
2018-12-06T00:09:18.680Z,6.2
2018-12-06T00:10:18.720Z,6.2
2018-12-06T00:11:18.644Z,6.1
2018-12-06T00:12:18.710Z,6.3
2018-12-06T00:13:18.631Z,6.2
2018-12-06T00:14:18.620Z,6.2
2018-12-06T00:15:18.690Z,6.1
2018-12-06T00:16:18.649Z,6.1
2018-12-06T00:17:18.706Z,6.1
2018-12-06T00:18:18.638Z,6.2
2018-12-06T00:19:18.619Z,6.4
2018-12-06T00:20:18.698Z,6.1
2018-12-06T00:21:18.705Z,5.9
2018-12-06T00:22:18.637Z,6
2018-12-06T00:23:18.636Z,6
2018-12-06T00:24:18.625Z,6.2
2018-12-06T00:25:18.632Z,6.5
2018-12-06T00:26:18.691Z,7
2018-12-06T00:27:18.627Z,7.3
2018-12-06T00:28:18.635Z,7.4
2018-12-06T00:29:18.709Z,7.6
2018-12-06T00:30:18.613Z,7.5
2018-12-06T00:31:18.630Z,7.5
2018-12-06T00:32:18.634Z,7.1
2018-12-06T00:33:18.630Z,7
2018-12-06T00:34:18.770Z,6.7
2018-12-06T00:35:18.607Z,6.6
2018-12-06T00:36:18.635Z,6.3
2018-12-06T00:37:18.621Z,6.1
2018-12-06T00:38:18.620Z,5.9
2018-12-06T00:39:18.694Z,5.8
2018-12-06T00:40:18.632Z,5.6
2018-12-06T00:41:18.605Z,5.8
2018-12-06T00:42:18.627Z,6
2018-12-06T00:43:18.628Z,6.3
2018-12-06T00:44:18.691Z,6.3
2018-12-06T00:45:18.698Z,6.5
2018-12-06T00:46:18.607Z,6.7
2018-12-06T00:47:18.627Z,6.6
2018-12-06T00:48:18.622Z,6.7
2018-12-06T00:49:18.625Z,6.6
2018-12-06T00:50:18.700Z,6.4
2018-12-06T00:51:18.606Z,6.1
2018-12-06T00:52:18.616Z,5.7
2018-12-06T00:53:18.619Z,5.3
2018-12-06T00:54:18.621Z,5
2018-12-06T00:55:18.685Z,4.6
2018-12-06T00:56:18.616Z,4.5
2018-12-06T00:57:18.665Z,4.6
2018-12-06T00:58:18.614Z,4.5
2018-12-06T00:59:18.609Z,4.5
2018-12-06T01:00:18.619Z,4.9
2018-12-06T01:01:18.613Z,5.1
2018-12-06T01:02:18.654Z,5.4
2018-12-06T01:03:18.606Z,5.1
2018-12-06T01:04:18.613Z,5.2
2018-12-06T01:05:18.597Z,5.2
2018-12-06T01:06:18.614Z,5.4
2018-12-06T01:07:18.673Z,5.4
2018-12-06T01:08:18.599Z,5.1
2018-12-06T01:09:18.606Z,4.9
2018-12-06T01:10:18.606Z,4.9
2018-12-06T01:11:18.606Z,5.1
2018-12-06T01:12:18.673Z,5.1
2018-12-06T01:13:18.592Z,5.1
2018-12-06T01:14:18.586Z,4.7
2018-12-06T01:15:18.606Z,4.3
2018-12-06T01:16:18.670Z,4.1
2018-12-06T01:17:18.615Z,3.7
2018-12-06T01:18:18.601Z,3.4
2018-12-06T01:19:18.601Z,3.1
2018-12-06T01:20:18.605Z,3.1
2018-12-06T01:21:18.657Z,3.8
2018-12-06T01:22:18.600Z,4.1
2018-12-06T01:23:18.668Z,3.8
2018-12-06T01:24:18.576Z,3.6
2018-12-06T01:25:18.589Z,3.4
2018-12-06T01:26:18.599Z,3.3
2018-12-06T01:27:18.674Z,3
2018-12-06T01:28:18.590Z,3
2018-12-06T01:29:18.591Z,2.7
2018-12-06T01:30:18.586Z,2.5
2018-12-06T01:31:18.674Z,2.4
2018-12-06T01:32:18.591Z,2.3
2018-12-06T01:33:18.603Z,2.2
2018-12-06T01:34:18.593Z,2
2018-12-06T01:35:18.587Z,1.9
2018-12-06T01:36:18.668Z,1.7
2018-12-06T01:37:18.584Z,1.6
2018-12-06T01:38:18.602Z,1.6
2018-12-06T01:39:18.592Z,1.4
2018-12-06T01:40:18.653Z,1.5
2018-12-06T01:41:18.570Z,1.4
2018-12-06T01:42:18.592Z,1.2
2018-12-06T01:43:18.585Z,1.3
2018-12-06T01:44:18.634Z,1.2
2018-12-06T01:45:18.657Z,1.1
2018-12-06T01:46:18.572Z,1
2018-12-06T01:47:18.585Z,0.9
2018-12-06T01:48:18.670Z,0.8
2018-12-06T01:49:18.586Z,0.8
2018-12-06T01:50:18.583Z,0.7
2018-12-06T01:51:18.584Z,0.6
2018-12-06T01:52:18.575Z,0.6
2018-12-06T01:53:18.642Z,0.7
2018-12-06T01:54:18.590Z,0.8
2018-12-06T01:55:18.585Z,0.8
2018-12-06T01:56:18.584Z,0.9
2018-12-06T01:57:18.560Z,0.8
2018-12-06T01:58:18.632Z,0.7
2018-12-06T01:59:18.574Z,0.7
2018-12-06T02:00:18.650Z,0.6
2018-12-06T02:01:18.576Z,0.9
2018-12-06T02:02:18.566Z,0.8
2018-12-06T02:03:18.577Z,0.7
2018-12-06T02:04:18.645Z,0.7
2018-12-06T02:05:18.572Z,0.7
2018-12-06T02:06:18.580Z,0.8
2018-12-06T02:07:18.632Z,0.7
2018-12-06T02:08:18.557Z,0.6
2018-12-06T02:09:18.642Z,0.6
2018-12-06T02:10:18.577Z,0.5
2018-12-06T02:11:18.581Z,0.5
2018-12-06T02:12:18.569Z,0.5
2018-12-06T02:13:18.689Z,0.5
2018-12-06T02:14:18.564Z,0.5
2018-12-06T02:15:18.569Z,0.5
2018-12-06T02:16:18.578Z,0.4
2018-12-06T02:17:18.564Z,0.4
2018-12-06T02:18:18.558Z,0.4
2018-12-06T02:19:18.618Z,0.5
2018-12-06T02:20:18.558Z,0.6
2018-12-06T02:21:18.562Z,0.6
2018-12-06T02:22:18.582Z,0.6
2018-12-06T02:23:18.604Z,0.6
2018-12-06T02:24:18.603Z,0.6
2018-12-06T02:25:18.557Z,0.5
2018-12-06T02:26:18.612Z,0.6
2018-12-06T02:27:18.556Z,0.6
2018-12-06T02:28:18.562Z,0.5
2018-12-06T02:29:18.565Z,0.5
2018-12-06T02:30:18.623Z,0.5
2018-12-06T02:31:18.565Z,0.6
2018-12-06T02:32:18.625Z,0.7
2018-12-06T02:33:18.627Z,0.6
2018-12-06T02:34:18.561Z,0.6
2018-12-06T02:35:18.550Z,0.5
2018-12-06T02:36:18.541Z,0.5
2018-12-06T02:37:18.560Z,0.4
2018-12-06T02:38:18.641Z,0.4
2018-12-06T02:39:18.559Z,0.4
2018-12-06T02:40:18.540Z,0.6
2018-12-06T02:41:18.555Z,0.9
2018-12-06T02:42:18.550Z,1.4
2018-12-06T02:43:18.621Z,1.4
2018-12-06T02:44:18.551Z,1.4
2018-12-06T02:45:18.545Z,1.4
2018-12-06T02:46:18.535Z,1.5
2018-12-06T02:47:18.608Z,1.6
2018-12-06T02:48:18.541Z,1.5
2018-12-06T02:49:18.611Z,1.3
2018-12-06T02:50:18.639Z,1.2
2018-12-06T02:51:18.534Z,1.1
2018-12-06T02:52:18.540Z,1
2018-12-06T02:53:18.544Z,0.9
2018-12-06T02:54:18.616Z,0.8
2018-12-06T02:55:18.553Z,0.8
2018-12-06T02:56:18.541Z,0.8
2018-12-06T02:57:18.522Z,0.7
2018-12-06T02:58:18.549Z,0.6
2018-12-06T02:59:18.612Z,0.6
2018-12-06T03:00:18.541Z,0.5
2018-12-06T03:01:18.541Z,0.5
2018-12-06T03:02:18.526Z,0.4
2018-12-06T03:03:18.539Z,0.4
2018-12-06T03:04:18.604Z,0.3
2018-12-06T03:05:18.612Z,0.3
2018-12-06T03:06:18.537Z,0.3
2018-12-06T03:07:18.527Z,0.3
2018-12-06T03:08:18.516Z,0.2
2018-12-06T03:09:18.547Z,0.2
2018-12-06T03:10:18.599Z,0.2
2018-12-06T03:11:18.536Z,0.2
2018-12-06T03:12:18.610Z,0.2
2018-12-06T03:13:18.518Z,0.1
2018-12-06T03:14:18.525Z,0.1
2018-12-06T03:15:18.598Z,0.3
2018-12-06T03:16:18.531Z,0.6
2018-12-06T03:17:18.527Z,0.8
2018-12-06T03:18:18.596Z,1
2018-12-06T03:19:18.517Z,1.3
2018-12-06T03:20:18.532Z,1.5
2018-12-06T03:21:18.602Z,1.5
2018-12-06T03:22:18.532Z,1.7
2018-12-06T03:23:18.528Z,1.6
2018-12-06T03:24:18.511Z,1.4
2018-12-06T03:25:18.527Z,1.3
2018-12-06T03:26:18.586Z,1.2
2018-12-06T03:27:18.523Z,1.3
2018-12-06T03:28:18.532Z,1.2
2018-12-06T03:29:18.514Z,1.2
2018-12-06T03:30:18.523Z,1.1
2018-12-06T03:31:18.595Z,1.1
2018-12-06T03:32:18.527Z,1.1
2018-12-06T03:33:18.524Z,1
2018-12-06T03:34:18.523Z,0.9
2018-12-06T03:35:18.507Z,0.8
2018-12-06T03:36:18.572Z,0.7
2018-12-06T03:37:18.591Z,0.7
2018-12-06T03:38:18.519Z,0.6
2018-12-06T03:39:18.520Z,0.5
2018-12-06T03:40:18.500Z,0.5
2018-12-06T03:41:18.511Z,0.4
2018-12-06T03:42:18.584Z,0.4
2018-12-06T03:43:18.516Z,0.4
2018-12-06T03:44:18.519Z,0.3
2018-12-06T03:45:18.587Z,0.3
2018-12-06T03:46:18.548Z,0.3
2018-12-06T03:47:18.590Z,0.2
2018-12-06T03:48:18.517Z,0.2
2018-12-06T03:49:18.509Z,0.2
2018-12-06T03:50:18.519Z,0.2
2018-12-06T03:51:18.497Z,0.2
2018-12-06T03:52:18.588Z,0.1
2018-12-06T03:53:18.556Z,0.1
2018-12-06T03:54:18.512Z,0.1
2018-12-06T03:55:18.513Z,0.1
2018-12-06T03:56:18.506Z,0.1
2018-12-06T03:57:18.559Z,0.1
2018-12-06T03:58:18.508Z,0.1
2018-12-06T03:59:18.577Z,0.1
2018-12-06T04:00:18.513Z,0.1
2018-12-06T04:01:18.511Z,0.1
2018-12-06T04:02:18.501Z,0.1
2018-12-06T04:03:18.494Z,0
2018-12-06T04:04:18.587Z,0
2018-12-06T04:05:18.507Z,0
2018-12-06T04:06:18.566Z,0
2018-12-06T04:07:18.574Z,0
2018-12-06T04:08:18.489Z,0
2018-12-06T04:09:18.502Z,0
2018-12-06T04:10:18.574Z,0
2018-12-06T04:11:18.504Z,0
2018-12-06T04:12:18.507Z,0
2018-12-06T04:13:18.487Z,0
2018-12-06T04:14:18.504Z,0
2018-12-06T04:15:18.567Z,0
2018-12-06T04:16:18.487Z,0
2018-12-06T04:17:18.585Z,0
2018-12-06T04:18:18.501Z,0
2018-12-06T04:19:18.484Z,0
2018-12-06T04:20:18.493Z,0
2018-12-06T04:21:18.494Z,0
2018-12-06T04:22:18.568Z,0
2018-12-06T04:23:18.493Z,0
2018-12-06T04:24:18.477Z,0
2018-12-06T04:25:18.548Z,0
2018-12-06T04:26:18.496Z,0
2018-12-06T04:27:18.492Z,0
2018-12-06T04:28:18.566Z,0
2018-12-06T04:29:18.489Z,0
2018-12-06T04:30:18.564Z,0
2018-12-06T04:31:18.487Z,0
2018-12-06T04:32:18.485Z,0
2018-12-06T04:33:18.491Z,0
2018-12-06T04:34:18.498Z,0
2018-12-06T04:35:18.539Z,0
2018-12-06T04:36:18.517Z,0
2018-12-06T04:37:18.483Z,0
2018-12-06T04:38:18.490Z,0
2018-12-06T04:39:18.571Z,0
2018-12-06T04:40:18.563Z,0
2018-12-06T04:41:18.484Z,0
2018-12-06T04:42:18.480Z,0
2018-12-06T04:43:18.486Z,0
2018-12-06T04:44:18.487Z,0
2018-12-06T04:45:18.532Z,0.1
2018-12-06T04:46:18.461Z,0.6
2018-12-06T04:47:18.544Z,0.8
2018-12-06T04:48:21.794Z,0.8
2018-12-06T04:49:18.477Z,0.8
2018-12-06T04:50:18.484Z,0.7
2018-12-06T04:51:18.517Z,0.7
2018-12-06T04:52:18.482Z,0.6
2018-12-06T04:53:18.483Z,0.5
2018-12-06T04:54:18.476Z,0.5
2018-12-06T04:55:18.470Z,0.4
2018-12-06T04:56:18.551Z,0.4
2018-12-06T04:57:18.462Z,0.4
2018-12-06T04:58:18.474Z,0.4
2018-12-06T04:59:18.476Z,0.3
2018-12-06T05:00:18.472Z,0.3
2018-12-06T05:01:18.536Z,0.3
2018-12-06T05:02:18.462Z,0.2
2018-12-06T05:03:18.478Z,0.4
2018-12-06T05:04:18.534Z,0.7
2018-12-06T05:05:18.466Z,1.5
2018-12-06T05:06:18.466Z,2.2
2018-12-06T05:07:18.467Z,2.9
2018-12-06T05:08:18.453Z,3.6
2018-12-06T05:09:18.544Z,4.3
2018-12-06T05:10:18.467Z,4.7
2018-12-06T05:11:18.471Z,4.6
2018-12-06T05:12:18.476Z,4.8
2018-12-06T05:13:18.452Z,4.7
2018-12-06T05:14:18.467Z,4.5
2018-12-06T05:15:18.520Z,4.1
2018-12-06T05:16:18.467Z,3.7
2018-12-06T05:17:18.455Z,3.4
2018-12-06T05:18:18.527Z,3
2018-12-06T05:19:18.457Z,2.8
2018-12-06T05:20:18.466Z,2.5
2018-12-06T05:21:18.465Z,2.3
2018-12-06T05:22:18.461Z,2
2018-12-06T05:23:18.547Z,1.8
2018-12-06T05:24:18.455Z,1.7
2018-12-06T05:25:18.465Z,1.5
2018-12-06T05:26:18.462Z,1.4
2018-12-06T05:27:18.532Z,1.2
2018-12-06T05:28:20.614Z,1.1
2018-12-06T05:29:18.439Z,1
2018-12-06T05:30:18.443Z,0.9
2018-12-06T05:31:18.453Z,0.8
2018-12-06T05:32:18.513Z,0.7
2018-12-06T05:33:18.450Z,0.7
2018-12-06T05:34:18.450Z,0.6
2018-12-06T05:35:18.434Z,0.6
2018-12-06T05:36:18.449Z,0.5
2018-12-06T05:37:18.520Z,0.5
2018-12-06T05:38:18.467Z,0.4
2018-12-06T05:39:18.441Z,0.4
2018-12-06T05:40:18.430Z,0.3
2018-12-06T05:41:18.428Z,0.3
2018-12-06T05:42:18.528Z,0.3
2018-12-06T05:43:18.443Z,0.3
2018-12-06T05:44:18.441Z,0.2
2018-12-06T05:45:18.444Z,0.3
2018-12-06T05:46:18.429Z,0.5
2018-12-06T05:47:18.546Z,1
2018-12-06T05:48:18.438Z,1.5
2018-12-06T05:49:18.447Z,2
2018-12-06T05:50:18.450Z,2.4
2018-12-06T05:51:18.481Z,2.5
2018-12-06T05:52:18.440Z,2.7
2018-12-06T05:53:18.511Z,3.2
2018-12-06T05:54:18.445Z,3.5
2018-12-06T05:55:18.427Z,3.5
2018-12-06T05:56:20.492Z,3.3
2018-12-06T05:57:18.427Z,3.2
2018-12-06T05:58:18.533Z,3
2018-12-06T05:59:18.438Z,2.9
2018-12-06T06:00:18.551Z,2.6
2018-12-06T06:01:18.426Z,2.3
2018-12-06T06:02:18.413Z,2.1
2018-12-06T06:03:18.493Z,1.9
2018-12-06T06:04:18.565Z,1.7
2018-12-06T06:05:18.433Z,1.6
2018-12-06T06:06:18.431Z,1.4
2018-12-06T06:07:18.434Z,1.3
2018-12-06T06:08:18.589Z,1.2
2018-12-06T06:09:18.494Z,1
2018-12-06T06:10:18.421Z,0.9
2018-12-06T06:11:18.631Z,1.1
2018-12-06T06:12:18.432Z,1.1
2018-12-06T06:13:18.413Z,1.3
2018-12-06T06:14:18.500Z,1.7
2018-12-06T06:15:18.408Z,1.9
2018-12-06T06:16:22.862Z,2.3
2018-12-06T06:17:18.436Z,2.8
2018-12-06T06:18:29.070Z,2.9
2018-12-06T06:19:18.732Z,3.2
2018-12-06T06:20:21.004Z,3.3
2018-12-06T06:21:21.418Z,3.4
2018-12-06T06:22:23.403Z,3.3
2018-12-06T06:23:20.720Z,2.9
2018-12-06T06:24:20.517Z,3.1
2018-12-06T06:25:20.578Z,3
2018-12-06T06:26:22.195Z,3.3
2018-12-06T06:27:18.421Z,4.3
2018-12-06T06:28:18.417Z,5.2
2018-12-06T06:29:18.474Z,6.2
2018-12-06T06:30:18.403Z,7
2018-12-06T06:31:18.412Z,7.2
2018-12-06T06:32:18.479Z,7.1
2018-12-06T06:33:18.420Z,6.7
2018-12-06T06:34:18.421Z,6
2018-12-06T06:35:18.473Z,5.5
2018-12-06T06:36:18.421Z,5
2018-12-06T06:37:18.420Z,4.6
2018-12-06T06:38:18.423Z,4.6
2018-12-06T06:39:18.414Z,4.8
2018-12-06T06:40:18.475Z,4.8
2018-12-06T06:41:18.414Z,4.8
2018-12-06T06:42:18.478Z,4.7
2018-12-06T06:43:18.419Z,4.9
2018-12-06T06:44:18.416Z,4.9
2018-12-06T06:45:18.416Z,4.9
2018-12-06T06:46:18.401Z,5
2018-12-06T06:47:18.487Z,5.1
2018-12-06T06:48:18.410Z,5.4
2018-12-06T06:49:18.414Z,5.9
2018-12-06T06:50:18.408Z,6.1
2018-12-06T06:51:18.392Z,6.4
2018-12-06T06:52:18.462Z,6.4
2018-12-06T06:53:18.410Z,6.6
2018-12-06T06:54:18.410Z,7
2018-12-06T06:55:18.403Z,7.7
2018-12-06T06:56:18.406Z,8.1
2018-12-06T06:57:18.467Z,8.8
2018-12-06T06:58:18.403Z,8.8
2018-12-06T06:59:25.762Z,8.9
2018-12-06T07:00:18.404Z,9
2018-12-06T07:01:18.400Z,8.7
2018-12-06T07:02:18.460Z,9
2018-12-06T07:03:18.467Z,9.1
2018-12-06T07:04:18.401Z,8.8
2018-12-06T07:05:18.402Z,9.1
2018-12-06T07:06:18.404Z,9
2018-12-06T07:07:18.400Z,8.7
2018-12-06T07:08:18.390Z,8.4
2018-12-06T07:09:18.401Z,7.9
2018-12-06T07:10:18.472Z,7.8
2018-12-06T07:11:18.401Z,7.6
2018-12-06T07:12:18.471Z,7.2
2018-12-06T07:13:18.437Z,6.9
2018-12-06T07:14:18.477Z,6.3
2018-12-06T07:15:19.404Z,6
2018-12-06T07:16:18.464Z,5.9
2018-12-06T07:17:18.396Z,5.8
2018-12-06T07:18:18.387Z,5.9
2018-12-06T07:19:18.436Z,6
2018-12-06T07:20:18.388Z,5.9
2018-12-06T07:21:18.392Z,5.9
2018-12-06T07:22:18.400Z,5.9
2018-12-06T07:23:18.457Z,6.1
2018-12-06T07:24:18.382Z,6.1
2018-12-06T07:25:18.448Z,5.9
2018-12-06T07:26:18.392Z,5.4
2018-12-06T07:27:18.458Z,4.9
2018-12-06T07:28:18.454Z,4.5
2018-12-06T07:29:18.373Z,4.1
2018-12-06T07:30:18.445Z,3.7
2018-12-06T07:31:18.458Z,3.4
2018-12-06T07:32:18.391Z,3
2018-12-06T07:33:18.389Z,2.7
2018-12-06T07:34:18.387Z,2.5
2018-12-06T07:35:18.367Z,2.2
2018-12-06T07:36:18.466Z,2
2018-12-06T07:37:18.387Z,1.8
2018-12-06T07:38:18.386Z,1.7
2018-12-06T07:39:18.518Z,1.5
2018-12-06T07:40:18.370Z,1.4
2018-12-06T07:41:18.375Z,1.3
2018-12-06T07:42:18.382Z,2.2
2018-12-06T07:43:18.386Z,2.5
2018-12-06T07:44:18.452Z,2.8
2018-12-06T07:45:18.497Z,3.7
2018-12-06T07:46:18.356Z,4.2
2018-12-06T07:47:18.377Z,4.3
2018-12-06T07:48:18.374Z,4.3
2018-12-06T07:49:18.380Z,4.4
2018-12-06T07:50:18.441Z,4.4
2018-12-06T07:51:18.425Z,4.2
2018-12-06T07:52:18.363Z,3.8
2018-12-06T07:53:18.373Z,3.4
2018-12-06T07:54:18.373Z,3.1
2018-12-06T07:55:18.454Z,2.8
2018-12-06T07:56:18.388Z,2.6
2018-12-06T07:57:18.358Z,2.3
2018-12-06T07:58:18.380Z,2.1
2018-12-06T07:59:18.446Z,1.9
2018-12-06T08:00:18.353Z,1.7
2018-12-06T08:01:20.945Z,1.6
2018-12-06T08:02:18.357Z,1.4
2018-12-06T08:03:18.433Z,1.3
2018-12-06T08:04:18.592Z,1.6
2018-12-06T08:05:18.610Z,2.4
2018-12-06T08:06:18.365Z,3.2
2018-12-06T08:07:18.352Z,3.8
2018-12-06T08:08:18.369Z,4.3
2018-12-06T08:09:18.371Z,4.8
2018-12-06T08:10:19.677Z,5.1
2018-12-06T08:11:18.731Z,5.5
2018-12-06T08:12:28.499Z,6.3
2018-12-06T08:13:18.354Z,7.1
2018-12-06T08:14:18.352Z,7.6
2018-12-06T08:15:19.547Z,7.8
2018-12-06T08:16:18.416Z,7.9
2018-12-06T08:17:18.357Z,7.6
2018-12-06T08:18:18.347Z,7
2018-12-06T08:19:18.409Z,6.4
2018-12-06T08:20:20.422Z,6
2018-12-06T08:21:18.352Z,5.8
2018-12-06T08:22:18.370Z,5.3
2018-12-06T08:23:18.362Z,4.8
2018-12-06T08:24:18.423Z,4.4
2018-12-06T08:25:18.352Z,4.2
2018-12-06T08:26:18.358Z,4.1
2018-12-06T08:27:18.524Z,4.1
2018-12-06T08:28:18.358Z,4
2018-12-06T08:29:18.348Z,3.7
2018-12-06T08:30:18.343Z,3.8
2018-12-06T08:31:18.430Z,4
2018-12-06T08:32:18.432Z,4.2
2018-12-06T08:33:18.355Z,4.4
2018-12-06T08:34:18.354Z,4.4
2018-12-06T08:35:18.343Z,4.2
2018-12-06T08:36:18.563Z,4.1
2018-12-06T08:37:18.353Z,4
2018-12-06T08:38:18.355Z,3.8
2018-12-06T08:39:18.353Z,3.4
2018-12-06T08:40:18.346Z,3.1
2018-12-06T08:41:18.404Z,2.8
2018-12-06T08:42:18.337Z,2.5
2018-12-06T08:43:18.424Z,2.3
2018-12-06T08:44:21.362Z,2.1
2018-12-06T08:45:18.378Z,1.9
2018-12-06T08:46:18.614Z,1.7
2018-12-06T08:47:18.447Z,1.5
2018-12-06T08:48:18.415Z,1.4
2018-12-06T08:49:18.421Z,1.3
2018-12-06T08:50:18.349Z,1.1
2018-12-06T08:51:18.324Z,1
2018-12-06T08:52:18.435Z,0.9
2018-12-06T08:53:18.347Z,0.8
2018-12-06T08:54:18.344Z,0.8
2018-12-06T08:55:18.335Z,0.7
2018-12-06T08:56:18.344Z,0.6
2018-12-06T08:57:18.689Z,0.6
2018-12-06T08:58:18.343Z,0.8
2018-12-06T08:59:18.350Z,0.8
2018-12-06T09:00:18.351Z,0.7
2018-12-06T09:01:18.361Z,1.1
2018-12-06T09:02:18.397Z,1.4
2018-12-06T09:03:18.344Z,1.6
2018-12-06T09:04:18.335Z,1.6
2018-12-06T09:05:18.397Z,1.4
2018-12-06T09:06:18.337Z,1.3
2018-12-06T09:07:18.323Z,1.6
2018-12-06T09:08:18.332Z,2.3
2018-12-06T09:09:18.394Z,3
2018-12-06T09:10:18.330Z,3.6
2018-12-06T09:11:18.421Z,3.8
2018-12-06T09:12:18.327Z,4
2018-12-06T09:13:18.328Z,4.3
2018-12-06T09:14:18.316Z,4.5
2018-12-06T09:15:18.343Z,4.9
2018-12-06T09:16:18.411Z,5.4
2018-12-06T09:17:18.366Z,5.8
2018-12-06T09:18:18.390Z,6.2
2018-12-06T09:19:18.393Z,7
2018-12-06T09:20:18.338Z,8.1
2018-12-06T09:21:18.333Z,8.5
2018-12-06T09:22:18.333Z,8.9
2018-12-06T09:23:18.403Z,9.6
2018-12-06T09:24:18.311Z,9.9
2018-12-06T09:25:21.172Z,9.9
2018-12-06T09:26:18.324Z,9.9
2018-12-06T09:27:18.338Z,10.2
2018-12-06T09:28:18.391Z,10.4
2018-12-06T09:29:18.312Z,10.1
2018-12-06T09:30:18.325Z,10.1
2018-12-06T09:31:18.338Z,10.2
2018-12-06T09:32:18.338Z,10.4
2018-12-06T09:33:18.467Z,10.7
2018-12-06T09:34:18.324Z,10.9
2018-12-06T09:35:18.311Z,10.6
2018-12-06T09:36:18.381Z,10.3
2018-12-06T09:37:18.336Z,9.6
2018-12-06T09:38:18.324Z,8.9
2018-12-06T09:39:18.327Z,8
2018-12-06T09:40:18.396Z,7.3
2018-12-06T09:41:18.404Z,6.6
2018-12-06T09:42:18.328Z,6
2018-12-06T09:43:18.325Z,5.4
2018-12-06T09:44:18.322Z,4.9
2018-12-06T09:45:18.329Z,5
2018-12-06T09:46:19.183Z,5.5
2018-12-06T09:47:18.327Z,5.6
2018-12-06T09:48:18.317Z,5.7
2018-12-06T09:49:18.325Z,5.8
2018-12-06T09:50:18.413Z,5.8
2018-12-06T09:51:18.315Z,6.2
2018-12-06T09:52:18.328Z,6.4
2018-12-06T09:53:18.326Z,6.4
2018-12-06T09:54:18.334Z,6.5
2018-12-06T09:55:18.373Z,6.6
2018-12-06T09:56:18.376Z,6.9
2018-12-06T09:57:18.293Z,7.1
2018-12-06T09:58:18.318Z,7.1
2018-12-06T09:59:18.395Z,6.8
2018-12-06T10:00:18.310Z,6.5
2018-12-06T10:01:18.314Z,6.3
2018-12-06T10:02:18.290Z,6.6
2018-12-06T10:03:18.404Z,6.7
2018-12-06T10:04:18.334Z,7
2018-12-06T10:05:18.680Z,7
2018-12-06T10:06:18.321Z,6.8
2018-12-06T10:07:18.309Z,7.2
2018-12-06T10:08:18.395Z,6.9
2018-12-06T10:09:18.937Z,6.2
2018-12-06T10:10:18.325Z,5.7
2018-12-06T10:11:18.315Z,5.1
2018-12-06T10:12:18.335Z,4.7
2018-12-06T10:13:18.370Z,4.2
2018-12-06T10:14:19.644Z,3.8
2018-12-06T10:15:18.391Z,3.4
2018-12-06T10:16:18.395Z,3.1
2018-12-06T10:17:18.304Z,2.8
2018-12-06T10:18:18.296Z,2.6
2018-12-06T10:19:18.318Z,2.3
2018-12-06T10:20:18.306Z,2.1
2018-12-06T10:21:18.379Z,1.9
2018-12-06T10:22:18.315Z,1.7
2018-12-06T10:23:18.303Z,1.5
2018-12-06T10:24:18.293Z,1.4
2018-12-06T10:25:18.318Z,1.3
2018-12-06T10:26:18.375Z,1.1
2018-12-06T10:27:18.307Z,1
2018-12-06T10:28:18.314Z,0.9
2018-12-06T10:29:18.307Z,0.9
2018-12-06T10:30:18.361Z,0.8
2018-12-06T10:31:18.308Z,0.7
2018-12-06T10:32:18.305Z,0.6
2018-12-06T10:33:18.312Z,0.6
2018-12-06T10:34:18.386Z,0.5
2018-12-06T10:35:18.307Z,0.5
2018-12-06T10:36:18.383Z,0.4
2018-12-06T10:37:18.315Z,0.4
2018-12-06T10:38:18.373Z,0.4
2018-12-06T10:39:18.306Z,0.3
2018-12-06T10:40:18.294Z,0.3
2018-12-06T10:41:18.368Z,0.3
2018-12-06T10:42:18.359Z,0.4
2018-12-06T10:43:18.296Z,0.6
2018-12-06T10:44:18.306Z,0.7
2018-12-06T10:45:18.306Z,0.7
2018-12-06T10:46:18.337Z,0.7
2018-12-06T10:47:18.296Z,1
2018-12-06T10:48:18.361Z,0.9
2018-12-06T10:49:18.310Z,1.2
2018-12-06T10:50:18.297Z,1.2
2018-12-06T10:51:18.276Z,1.2
2018-12-06T10:52:18.297Z,1.3
2018-12-06T10:53:18.368Z,1.3
2018-12-06T10:54:18.292Z,1.8
2018-12-06T10:55:18.295Z,2.6
2018-12-06T10:56:18.283Z,3.3
2018-12-06T10:57:18.303Z,3.6
2018-12-06T10:58:18.373Z,4.3
2018-12-06T10:59:18.290Z,5.1
2018-12-06T11:00:18.299Z,6
2018-12-06T11:01:18.291Z,6.7
2018-12-06T11:02:18.362Z,8.3
2018-12-06T11:03:18.293Z,8.8
2018-12-06T11:04:18.300Z,9.1
2018-12-06T11:05:18.296Z,9.2
2018-12-06T11:06:18.298Z,9.7
2018-12-06T11:07:18.336Z,10.2
2018-12-06T11:08:18.280Z,10.9
2018-12-06T11:09:18.341Z,11.6
2018-12-06T11:10:18.287Z,12
2018-12-06T11:11:18.290Z,11.9
2018-12-06T11:12:18.363Z,12.1
2018-12-06T11:13:18.282Z,12.6
2018-12-06T11:14:18.283Z,12.9
2018-12-06T11:15:18.294Z,12.6
2018-12-06T11:16:18.350Z,12.4
2018-12-06T11:17:18.294Z,11.9
2018-12-06T11:18:18.344Z,11.4
2018-12-06T11:19:18.291Z,11.1
2018-12-06T11:20:18.283Z,10.7
2018-12-06T11:21:18.290Z,10.6
2018-12-06T11:22:18.357Z,10.1
2018-12-06T11:23:18.284Z,9.6
2018-12-06T11:24:18.340Z,9
2018-12-06T11:25:18.292Z,8.2
2018-12-06T11:26:18.285Z,8.3
2018-12-06T11:27:18.348Z,8.2
2018-12-06T11:28:18.291Z,7.8
2018-12-06T11:29:18.269Z,8.1
2018-12-06T11:30:18.346Z,8.3
2018-12-06T11:31:18.289Z,7.9
2018-12-06T11:32:18.348Z,7.7
2018-12-06T11:33:18.284Z,7.3
2018-12-06T11:34:18.360Z,6.9
2018-12-06T11:35:18.265Z,6.8
2018-12-06T11:36:18.293Z,7.1
2018-12-06T11:37:18.382Z,6.8
2018-12-06T11:38:18.284Z,6.7
2018-12-06T11:39:18.353Z,6.2
2018-12-06T11:40:18.267Z,5.7
2018-12-06T11:41:18.272Z,5.9
2018-12-06T11:42:19.040Z,5.9
2018-12-06T11:43:18.350Z,5.6
2018-12-06T11:44:18.349Z,5.3
2018-12-06T11:45:18.271Z,5.2
2018-12-06T11:46:18.272Z,4.8
2018-12-06T11:47:18.279Z,4.4
2018-12-06T11:48:18.281Z,4.4
2018-12-06T11:49:18.392Z,4.2
2018-12-06T11:50:18.357Z,3.8
2018-12-06T11:51:18.260Z,3.5
2018-12-06T11:52:18.271Z,3.1
2018-12-06T11:53:19.313Z,2.8
2018-12-06T11:54:18.280Z,2.6
2018-12-06T11:55:18.361Z,2.6
2018-12-06T11:56:18.258Z,3.5
2018-12-06T11:57:18.248Z,4
2018-12-06T11:58:18.271Z,4.6
2018-12-06T11:59:18.335Z,4.4
2018-12-06T12:00:18.343Z,4.8
2018-12-06T12:01:18.274Z,4.9
2018-12-06T12:02:18.263Z,5.3
2018-12-06T12:03:18.297Z,5.6
2018-12-06T12:04:18.276Z,5.4
2018-12-06T12:05:18.342Z,6.1
2018-12-06T12:06:18.272Z,7.1
2018-12-06T12:07:18.255Z,7.8
2018-12-06T12:08:18.271Z,9.9
2018-12-06T12:09:18.267Z,10.6
2018-12-06T12:10:18.341Z,11
2018-12-06T12:11:18.281Z,12.1
2018-12-06T12:12:18.339Z,13
2018-12-06T12:13:18.250Z,13.4
2018-12-06T12:14:18.274Z,14
2018-12-06T12:15:18.263Z,13.5
2018-12-06T12:16:18.266Z,13.2
2018-12-06T12:17:18.339Z,12.6
2018-12-06T12:18:18.258Z,12.4
2018-12-06T12:19:18.247Z,12.5
2018-12-06T12:20:18.273Z,12.1
2018-12-06T12:21:18.334Z,12.3
2018-12-06T12:22:18.266Z,12.6
2018-12-06T12:23:18.259Z,13
2018-12-06T12:24:18.248Z,12.6
2018-12-06T12:25:18.271Z,11.9
2018-12-06T12:26:18.349Z,12.3
2018-12-06T12:27:18.580Z,12.5
2018-12-06T12:28:18.345Z,12.7
2018-12-06T12:29:18.519Z,12.8
2018-12-06T12:30:18.264Z,13.2
2018-12-06T12:31:18.331Z,14.5
2018-12-06T12:32:18.263Z,15
2018-12-06T12:33:18.329Z,16.4
2018-12-06T12:34:18.262Z,16.9
2018-12-06T12:35:18.872Z,17
2018-12-06T12:36:18.372Z,16.7
2018-12-06T12:37:18.305Z,16.2
2018-12-06T12:38:18.265Z,16.3
2018-12-06T12:39:18.333Z,16.1
2018-12-06T12:40:18.251Z,16.9
2018-12-06T12:41:18.263Z,17.2
2018-12-06T12:42:18.266Z,17.4
2018-12-06T12:43:18.312Z,17.9
2018-12-06T12:44:18.260Z,18.2
2018-12-06T12:45:18.251Z,18.3
2018-12-06T12:46:18.327Z,18.9
2018-12-06T12:47:18.263Z,20.4
2018-12-06T12:48:18.252Z,20.8
2018-12-06T12:49:18.435Z,20.8
2018-12-06T12:50:18.259Z,20
2018-12-06T12:51:18.236Z,20.1
2018-12-06T12:52:18.260Z,19.4
2018-12-06T12:53:18.250Z,19.6
2018-12-06T12:54:18.316Z,20
2018-12-06T12:55:18.250Z,20.2
2018-12-06T12:56:18.252Z,19.1
2018-12-06T12:57:18.245Z,18.7
2018-12-06T12:58:18.252Z,17.8
2018-12-06T12:59:18.304Z,17.2
2018-12-06T13:00:18.259Z,16.3
2018-12-06T13:01:18.256Z,15.3
2018-12-06T13:02:18.234Z,14.9
2018-12-06T13:03:18.324Z,14.6
2018-12-06T13:04:18.276Z,14.2
2018-12-06T13:05:18.256Z,14.1
2018-12-06T13:06:18.308Z,13.7
2018-12-06T13:07:18.240Z,12.8
2018-12-06T13:08:18.252Z,11.8
2018-12-06T13:09:18.302Z,10.8
2018-12-06T13:10:18.244Z,10.6
2018-12-06T13:11:18.430Z,10.5
2018-12-06T13:12:18.243Z,10
2018-12-06T13:13:18.236Z,9.8
2018-12-06T13:14:18.252Z,9.6
2018-12-06T13:15:18.249Z,9.2
2018-12-06T13:16:18.306Z,9
2018-12-06T13:17:18.249Z,10
2018-12-06T13:18:18.223Z,10.3
2018-12-06T13:19:18.305Z,10.4
2018-12-06T13:20:18.246Z,10.7
2018-12-06T13:21:18.247Z,11
2018-12-06T13:22:18.238Z,11.5
2018-12-06T13:23:18.302Z,11.5
2018-12-06T13:24:18.239Z,11.8
2018-12-06T13:25:18.239Z,11.7
2018-12-06T13:26:18.252Z,11.6
2018-12-06T13:27:18.322Z,11.4
2018-12-06T13:28:18.248Z,11
2018-12-06T13:29:18.302Z,10.7
2018-12-06T13:30:18.318Z,10.6
2018-12-06T13:31:18.234Z,10.5
2018-12-06T13:32:18.248Z,10
2018-12-06T13:33:18.244Z,9.8
2018-12-06T13:34:18.300Z,9.8
2018-12-06T13:35:18.243Z,10
2018-12-06T13:36:18.244Z,9.8
2018-12-06T13:37:18.311Z,10.2
2018-12-06T13:38:18.243Z,10.2
2018-12-06T13:39:18.251Z,10.2
2018-12-06T13:40:18.305Z,10.7
2018-12-06T13:41:18.235Z,11.3
2018-12-06T13:42:23.446Z,11.3
2018-12-06T13:43:18.250Z,10.9
2018-12-06T13:44:18.241Z,11.1
2018-12-06T13:45:18.286Z,12.3
2018-12-06T13:46:18.240Z,13.7
2018-12-06T13:47:18.340Z,13.4
2018-12-06T13:48:18.240Z,14.7
2018-12-06T13:49:18.236Z,16